sensor_id;sensor_type;location;lat;lon;timestamp;P1;durP1;ratioP1;P2;durP2;ratioP2
39792;SDS011;26080;42.264;24.536;2023-07-31T00:01:19;0.50;;;0.50;;
39792;SDS011;26080;42.264;24.536;2023-07-31T00:03:45;0.50;;;0.50;;
39792;SDS011;26080;42.264;24.536;2023-07-31T00:06:11;2.83;;;0.65;;
39792;SDS011;26080;42.264;24.536;2023-07-31T00:08:36;0.63;;;0.50;;
39792;SDS011;26080;42.264;24.536;2023-07-31T00:11:02;0.95;;;0.50;;
39792;SDS011;26080;42.264;24.536;2023-07-31T00:13:27;0.65;;;0.60;;
39792;SDS011;26080;42.264;24.536;2023-07-31T00:15:53;1.30;;;0.75;;
39792;SDS011;26080;42.264;24.536;2023-07-31T00:18:18;1.65;;;0.60;;
39792;SDS011;26080;42.264;24.536;2023-07-31T00:20:44;1.27;;;0.85;;
39792;SDS011;26080;42.264;24.536;2023-07-31T00:23:09;1.45;;;0.68;;
39792;SDS011;26080;42.264;24.536;2023-07-31T00:25:35;1.30;;;0.75;;
39792;SDS011;26080;42.264;24.536;2023-07-31T00:28:00;0.45;;;0.45;;
39792;SDS011;26080;42.264;24.536;2023-07-31T00:30:26;0.88;;;0.60;;
39792;SDS011;26080;42.264;24.536;2023-07-31T00:32:52;0.40;;;0.40;;
39792;SDS011;26080;42.264;24.536;2023-07-31T00:35:17;0.73;;;0.57;;
39792;SDS011;26080;42.264;24.536;2023-07-31T00:37:43;0.50;;;0.50;;
39792;SDS011;26080;42.264;24.536;2023-07-31T00:40:08;1.45;;;0.77;;
39792;SDS011;26080;42.264;24.536;2023-07-31T00:42:34;0.63;;;0.52;;
39792;SDS011;26080;42.264;24.536;2023-07-31T00:44:59;0.32;;;0.32;;
39792;SDS011;26080;42.264;24.536;2023-07-31T00:47:25;1.17;;;0.60;;
39792;SDS011;26080;42.264;24.536;2023-07-31T00:49:51;0.30;;;0.30;;
39792;SDS011;26080;42.264;24.536;2023-07-31T00:52:16;0.40;;;0.40;;
39792;SDS011;26080;42.264;24.536;2023-07-31T00:54:43;0.50;;;0.50;;
39792;SDS011;26080;42.264;24.536;2023-07-31T00:57:09;0.55;;;0.55;;
39792;SDS011;26080;42.264;24.536;2023-07-31T00:59:34;0.80;;;0.50;;
39792;SDS011;26080;42.264;24.536;2023-07-31T01:02:00;1.20;;;0.90;;
39792;SDS011;26080;42.264;24.536;2023-07-31T01:04:25;0.30;;;0.30;;
39792;SDS011;26080;42.264;24.536;2023-07-31T01:12:13;0.63;;;0.50;;
39792;SDS011;26080;42.264;24.536;2023-07-31T01:14:50;0.50;;;0.50;;
39792;SDS011;26080;42.264;24.536;2023-07-31T01:17:16;0.80;;;0.63;;
39792;SDS011;26080;42.264;24.536;2023-07-31T01:19:42;1.35;;;0.60;;
39792;SDS011;26080;42.264;24.536;2023-07-31T01:28:04;1.10;;;0.52;;
39792;SDS011;26080;42.264;24.536;2023-07-31T01:30:33;0.65;;;0.40;;
39792;SDS011;26080;42.264;24.536;2023-07-31T01:33:05;1.63;;;0.55;;
39792;SDS011;26080;42.264;24.536;2023-07-31T01:35:36;0.52;;;0.38;;
39792;SDS011;26080;42.264;24.536;2023-07-31T01:38:02;0.93;;;0.60;;
39792;SDS011;26080;42.264;24.536;2023-07-31T01:40:29;0.65;;;0.57;;
39792;SDS011;26080;42.264;24.536;2023-07-31T01:42:54;0.63;;;0.50;;
39792;SDS011;26080;42.264;24.536;2023-07-31T01:45:20;0.73;;;0.40;;
39792;SDS011;26080;42.264;24.536;2023-07-31T01:47:46;0.60;;;0.40;;
39792;SDS011;26080;42.264;24.536;2023-07-31T01:50:11;0.30;;;0.30;;
39792;SDS011;26080;42.264;24.536;2023-07-31T01:52:37;0.85;;;0.50;;
39792;SDS011;26080;42.264;24.536;2023-07-31T01:55:02;0.52;;;0.52;;
39792;SDS011;26080;42.264;24.536;2023-07-31T01:57:28;0.50;;;0.40;;
39792;SDS011;26080;42.264;24.536;2023-07-31T01:59:54;1.38;;;0.85;;
39792;SDS011;26080;42.264;24.536;2023-07-31T02:02:19;0.73;;;0.52;;
39792;SDS011;26080;42.264;24.536;2023-07-31T02:04:45;4.88;;;0.70;;
39792;SDS011;26080;42.264;24.536;2023-07-31T02:07:11;2.17;;;0.90;;
39792;SDS011;26080;42.264;24.536;2023-07-31T02:09:37;0.52;;;0.50;;
39792;SDS011;26080;42.264;24.536;2023-07-31T02:12:02;0.47;;;0.43;;
39792;SDS011;26080;42.264;24.536;2023-07-31T02:14:28;7.20;;;0.60;;
39792;SDS011;26080;42.264;24.536;2023-07-31T02:16:53;1.20;;;0.65;;
39792;SDS011;26080;42.264;24.536;2023-07-31T02:19:19;1.33;;;1.00;;
39792;SDS011;26080;42.264;24.536;2023-07-31T02:21:45;6.72;;;1.38;;
39792;SDS011;26080;42.264;24.536;2023-07-31T02:24:10;1.85;;;1.10;;
39792;SDS011;26080;42.264;24.536;2023-07-31T02:26:36;1.25;;;0.88;;
39792;SDS011;26080;42.264;24.536;2023-07-31T02:29:01;1.95;;;1.05;;
39792;SDS011;26080;42.264;24.536;2023-07-31T02:31:27;0.80;;;0.50;;
39792;SDS011;26080;42.264;24.536;2023-07-31T02:33:52;2.00;;;1.48;;
39792;SDS011;26080;42.264;24.536;2023-07-31T02:36:17;2.38;;;1.10;;
39792;SDS011;26080;42.264;24.536;2023-07-31T02:38:44;1.42;;;1.02;;
39792;SDS011;26080;42.264;24.536;2023-07-31T02:41:09;1.52;;;1.27;;
39792;SDS011;26080;42.264;24.536;2023-07-31T02:43:34;1.73;;;1.00;;
39792;SDS011;26080;42.264;24.536;2023-07-31T02:46:00;2.10;;;1.20;;
39792;SDS011;26080;42.264;24.536;2023-07-31T02:48:25;2.92;;;1.75;;
39792;SDS011;26080;42.264;24.536;2023-07-31T02:50:51;4.95;;;1.25;;
39792;SDS011;26080;42.264;24.536;2023-07-31T02:53:16;1.63;;;0.93;;
39792;SDS011;26080;42.264;24.536;2023-07-31T02:55:42;2.40;;;1.33;;
39792;SDS011;26080;42.264;24.536;2023-07-31T02:58:07;2.67;;;1.75;;
39792;SDS011;26080;42.264;24.536;2023-07-31T03:00:32;1.65;;;1.45;;
39792;SDS011;26080;42.264;24.536;2023-07-31T03:02:58;1.35;;;1.00;;
39792;SDS011;26080;42.264;24.536;2023-07-31T03:05:24;4.03;;;1.40;;
39792;SDS011;26080;42.264;24.536;2023-07-31T03:07:49;3.65;;;1.95;;
39792;SDS011;26080;42.264;24.536;2023-07-31T03:10:14;2.33;;;1.77;;
39792;SDS011;26080;42.264;24.536;2023-07-31T03:12:40;2.03;;;1.70;;
39792;SDS011;26080;42.264;24.536;2023-07-31T03:15:06;2.05;;;1.45;;
39792;SDS011;26080;42.264;24.536;2023-07-31T03:17:31;3.03;;;1.23;;
39792;SDS011;26080;42.264;24.536;2023-07-31T03:19:57;3.80;;;1.35;;
39792;SDS011;26080;42.264;24.536;2023-07-31T03:22:23;1.35;;;1.10;;
39792;SDS011;26080;42.264;24.536;2023-07-31T03:24:48;5.03;;;1.77;;
39792;SDS011;26080;42.264;24.536;2023-07-31T03:27:14;2.67;;;1.50;;
39792;SDS011;26080;42.264;24.536;2023-07-31T03:29:39;2.22;;;1.67;;
39792;SDS011;26080;42.264;24.536;2023-07-31T03:32:05;2.42;;;1.42;;
39792;SDS011;26080;42.264;24.536;2023-07-31T03:34:30;5.88;;;1.92;;
39792;SDS011;26080;42.264;24.536;2023-07-31T03:36:57;3.03;;;1.73;;
39792;SDS011;26080;42.264;24.536;2023-07-31T03:39:23;7.15;;;1.70;;
39792;SDS011;26080;42.264;24.536;2023-07-31T03:41:48;5.70;;;2.67;;
39792;SDS011;26080;42.264;24.536;2023-07-31T03:44:13;1.83;;;1.48;;
39792;SDS011;26080;42.264;24.536;2023-07-31T03:46:39;2.25;;;1.88;;
39792;SDS011;26080;42.264;24.536;2023-07-31T03:49:05;3.30;;;1.90;;
39792;SDS011;26080;42.264;24.536;2023-07-31T03:51:30;3.10;;;1.40;;
39792;SDS011;26080;42.264;24.536;2023-07-31T03:53:55;2.30;;;1.70;;
39792;SDS011;26080;42.264;24.536;2023-07-31T03:56:21;3.97;;;2.15;;
39792;SDS011;26080;42.264;24.536;2023-07-31T03:58:47;3.70;;;2.00;;
39792;SDS011;26080;42.264;24.536;2023-07-31T04:01:12;3.05;;;2.15;;
39792;SDS011;26080;42.264;24.536;2023-07-31T04:03:38;2.25;;;1.38;;
39792;SDS011;26080;42.264;24.536;2023-07-31T04:06:03;1.88;;;1.33;;
39792;SDS011;26080;42.264;24.536;2023-07-31T04:08:29;2.22;;;1.50;;
39792;SDS011;26080;42.264;24.536;2023-07-31T04:10:55;2.53;;;1.33;;
39792;SDS011;26080;42.264;24.536;2023-07-31T04:13:21;3.03;;;1.92;;
39792;SDS011;26080;42.264;24.536;2023-07-31T04:15:48;4.20;;;2.10;;
39792;SDS011;26080;42.264;24.536;2023-07-31T04:18:15;8.07;;;1.70;;
39792;SDS011;26080;42.264;24.536;2023-07-31T04:20:41;1.98;;;1.20;;
39792;SDS011;26080;42.264;24.536;2023-07-31T04:23:06;2.20;;;1.42;;
39792;SDS011;26080;42.264;24.536;2023-07-31T04:25:32;4.28;;;1.50;;
39792;SDS011;26080;42.264;24.536;2023-07-31T04:27:59;2.08;;;1.67;;
39792;SDS011;26080;42.264;24.536;2023-07-31T04:30:28;3.75;;;1.98;;
39792;SDS011;26080;42.264;24.536;2023-07-31T04:33:00;1.98;;;1.40;;
39792;SDS011;26080;42.264;24.536;2023-07-31T04:37:54;4.20;;;2.00;;
39792;SDS011;26080;42.264;24.536;2023-07-31T04:40:20;2.35;;;1.25;;
39792;SDS011;26080;42.264;24.536;2023-07-31T04:42:45;2.28;;;1.45;;
39792;SDS011;26080;42.264;24.536;2023-07-31T04:45:11;1.38;;;1.05;;
39792;SDS011;26080;42.264;24.536;2023-07-31T04:47:37;2.50;;;1.60;;
39792;SDS011;26080;42.264;24.536;2023-07-31T04:50:05;1.65;;;1.20;;
39792;SDS011;26080;42.264;24.536;2023-07-31T04:52:31;1.30;;;1.10;;
39792;SDS011;26080;42.264;24.536;2023-07-31T04:54:56;2.83;;;1.30;;
39792;SDS011;26080;42.264;24.536;2023-07-31T04:57:22;2.58;;;1.10;;
39792;SDS011;26080;42.264;24.536;2023-07-31T04:59:47;2.42;;;1.67;;
39792;SDS011;26080;42.264;24.536;2023-07-31T05:02:13;3.17;;;1.90;;
39792;SDS011;26080;42.264;24.536;2023-07-31T05:04:41;1.45;;;1.13;;
39792;SDS011;26080;42.264;24.536;2023-07-31T05:07:07;1.85;;;1.10;;
39792;SDS011;26080;42.264;24.536;2023-07-31T05:09:36;1.58;;;1.05;;
39792;SDS011;26080;42.264;24.536;2023-07-31T05:12:04;2.40;;;1.40;;
39792;SDS011;26080;42.264;24.536;2023-07-31T05:14:30;2.55;;;1.80;;
39792;SDS011;26080;42.264;24.536;2023-07-31T05:16:56;5.25;;;1.98;;
39792;SDS011;26080;42.264;24.536;2023-07-31T05:19:21;4.82;;;1.77;;
39792;SDS011;26080;42.264;24.536;2023-07-31T05:21:47;2.67;;;1.38;;
39792;SDS011;26080;42.264;24.536;2023-07-31T05:24:12;1.90;;;1.20;;
39792;SDS011;26080;42.264;24.536;2023-07-31T05:26:38;2.35;;;1.92;;
39792;SDS011;26080;42.264;24.536;2023-07-31T05:29:03;1.73;;;1.25;;
39792;SDS011;26080;42.264;24.536;2023-07-31T05:31:29;3.58;;;1.63;;
39792;SDS011;26080;42.264;24.536;2023-07-31T05:33:54;3.13;;;1.58;;
39792;SDS011;26080;42.264;24.536;2023-07-31T05:36:20;1.35;;;1.02;;
39792;SDS011;26080;42.264;24.536;2023-07-31T05:38:46;2.58;;;1.65;;
39792;SDS011;26080;42.264;24.536;2023-07-31T05:41:14;1.90;;;1.38;;
39792;SDS011;26080;42.264;24.536;2023-07-31T05:43:39;2.28;;;1.48;;
39792;SDS011;26080;42.264;24.536;2023-07-31T05:46:06;2.38;;;1.85;;
39792;SDS011;26080;42.264;24.536;2023-07-31T05:48:32;3.40;;;1.90;;
39792;SDS011;26080;42.264;24.536;2023-07-31T05:50:59;12.82;;;2.45;;
39792;SDS011;26080;42.264;24.536;2023-07-31T05:53:25;2.13;;;1.40;;
39792;SDS011;26080;42.264;24.536;2023-07-31T05:55:50;1.95;;;1.50;;
39792;SDS011;26080;42.264;24.536;2023-07-31T05:58:15;6.85;;;2.10;;
39792;SDS011;26080;42.264;24.536;2023-07-31T06:00:41;2.13;;;1.60;;
39792;SDS011;26080;42.264;24.536;2023-07-31T06:03:07;2.33;;;1.75;;
39792;SDS011;26080;42.264;24.536;2023-07-31T06:05:32;2.85;;;2.03;;
39792;SDS011;26080;42.264;24.536;2023-07-31T06:07:58;4.07;;;1.65;;
39792;SDS011;26080;42.264;24.536;2023-07-31T06:10:23;2.65;;;1.80;;
39792;SDS011;26080;42.264;24.536;2023-07-31T06:12:49;4.03;;;1.70;;
39792;SDS011;26080;42.264;24.536;2023-07-31T06:15:14;2.20;;;1.75;;
39792;SDS011;26080;42.264;24.536;2023-07-31T06:17:40;3.83;;;1.98;;
39792;SDS011;26080;42.264;24.536;2023-07-31T06:20:06;2.15;;;1.80;;
39792;SDS011;26080;42.264;24.536;2023-07-31T06:22:32;3.97;;;2.17;;
39792;SDS011;26080;42.264;24.536;2023-07-31T06:24:58;10.50;;;2.20;;
39792;SDS011;26080;42.264;24.536;2023-07-31T06:27:23;4.13;;;2.15;;
39792;SDS011;26080;42.264;24.536;2023-07-31T06:29:49;5.30;;;2.35;;
39792;SDS011;26080;42.264;24.536;2023-07-31T06:32:14;2.75;;;1.90;;
39792;SDS011;26080;42.264;24.536;2023-07-31T06:34:40;3.28;;;1.63;;
39792;SDS011;26080;42.264;24.536;2023-07-31T06:37:05;2.72;;;1.73;;
39792;SDS011;26080;42.264;24.536;2023-07-31T06:39:31;4.32;;;2.50;;
39792;SDS011;26080;42.264;24.536;2023-07-31T06:41:56;4.05;;;2.10;;
39792;SDS011;26080;42.264;24.536;2023-07-31T06:44:22;5.32;;;1.75;;
39792;SDS011;26080;42.264;24.536;2023-07-31T06:46:47;5.13;;;2.42;;
39792;SDS011;26080;42.264;24.536;2023-07-31T06:49:13;3.13;;;2.13;;
39792;SDS011;26080;42.264;24.536;2023-07-31T06:51:40;3.13;;;2.25;;
39792;SDS011;26080;42.264;24.536;2023-07-31T06:54:06;2.92;;;2.17;;
39792;SDS011;26080;42.264;24.536;2023-07-31T06:56:31;3.15;;;2.13;;
39792;SDS011;26080;42.264;24.536;2023-07-31T06:58:57;3.90;;;2.30;;
39792;SDS011;26080;42.264;24.536;2023-07-31T07:01:22;3.17;;;2.03;;
39792;SDS011;26080;42.264;24.536;2023-07-31T07:03:48;3.60;;;2.38;;
39792;SDS011;26080;42.264;24.536;2023-07-31T07:06:15;3.22;;;2.20;;
39792;SDS011;26080;42.264;24.536;2023-07-31T07:08:41;3.47;;;1.80;;
39792;SDS011;26080;42.264;24.536;2023-07-31T07:11:07;2.97;;;1.80;;
39792;SDS011;26080;42.264;24.536;2023-07-31T07:13:32;4.10;;;2.80;;
39792;SDS011;26080;42.264;24.536;2023-07-31T07:15:58;3.08;;;2.47;;
39792;SDS011;26080;42.264;24.536;2023-07-31T07:18:23;4.00;;;2.40;;
39792;SDS011;26080;42.264;24.536;2023-07-31T07:20:49;3.78;;;2.70;;
39792;SDS011;26080;42.264;24.536;2023-07-31T07:23:16;7.30;;;3.25;;
39792;SDS011;26080;42.264;24.536;2023-07-31T07:25:42;3.67;;;2.10;;
39792;SDS011;26080;42.264;24.536;2023-07-31T07:28:11;3.78;;;2.38;;
39792;SDS011;26080;42.264;24.536;2023-07-31T07:30:36;4.80;;;2.33;;
39792;SDS011;26080;42.264;24.536;2023-07-31T07:33:02;3.58;;;1.92;;
39792;SDS011;26080;42.264;24.536;2023-07-31T07:35:28;3.67;;;2.13;;
39792;SDS011;26080;42.264;24.536;2023-07-31T07:37:53;4.13;;;2.22;;
39792;SDS011;26080;42.264;24.536;2023-07-31T07:40:19;4.70;;;2.50;;
39792;SDS011;26080;42.264;24.536;2023-07-31T07:42:45;3.92;;;2.20;;
39792;SDS011;26080;42.264;24.536;2023-07-31T07:45:11;7.15;;;2.38;;
39792;SDS011;26080;42.264;24.536;2023-07-31T07:47:37;3.10;;;1.95;;
39792;SDS011;26080;42.264;24.536;2023-07-31T07:50:05;3.53;;;2.08;;
39792;SDS011;26080;42.264;24.536;2023-07-31T07:52:31;4.60;;;2.15;;
39792;SDS011;26080;42.264;24.536;2023-07-31T07:54:57;3.85;;;2.33;;
39792;SDS011;26080;42.264;24.536;2023-07-31T07:57:22;5.20;;;3.25;;
39792;SDS011;26080;42.264;24.536;2023-07-31T07:59:48;5.45;;;3.53;;
39792;SDS011;26080;42.264;24.536;2023-07-31T08:02:13;5.60;;;3.38;;
39792;SDS011;26080;42.264;24.536;2023-07-31T08:04:38;11.88;;;3.33;;
39792;SDS011;26080;42.264;24.536;2023-07-31T08:07:04;5.50;;;3.22;;
39792;SDS011;26080;42.264;24.536;2023-07-31T08:09:29;5.82;;;2.80;;
39792;SDS011;26080;42.264;24.536;2023-07-31T08:11:55;6.18;;;3.80;;
39792;SDS011;26080;42.264;24.536;2023-07-31T08:14:27;4.20;;;2.70;;
39792;SDS011;26080;42.264;24.536;2023-07-31T08:16:52;5.05;;;2.85;;
39792;SDS011;26080;42.264;24.536;2023-07-31T08:19:18;5.75;;;3.70;;
39792;SDS011;26080;42.264;24.536;2023-07-31T08:21:49;6.57;;;3.85;;
39792;SDS011;26080;42.264;24.536;2023-07-31T08:24:15;5.18;;;3.22;;
39792;SDS011;26080;42.264;24.536;2023-07-31T08:26:40;6.45;;;4.28;;
39792;SDS011;26080;42.264;24.536;2023-07-31T08:29:06;5.35;;;2.75;;
39792;SDS011;26080;42.264;24.536;2023-07-31T08:31:31;16.60;;;3.35;;
39792;SDS011;26080;42.264;24.536;2023-07-31T08:33:57;6.07;;;3.17;;
39792;SDS011;26080;42.264;24.536;2023-07-31T08:36:22;4.88;;;2.97;;
39792;SDS011;26080;42.264;24.536;2023-07-31T08:38:48;4.15;;;2.53;;
39792;SDS011;26080;42.264;24.536;2023-07-31T08:41:15;6.35;;;3.67;;
39792;SDS011;26080;42.264;24.536;2023-07-31T08:43:42;16.00;;;3.47;;
39792;SDS011;26080;42.264;24.536;2023-07-31T08:46:10;5.68;;;3.88;;
39792;SDS011;26080;42.264;24.536;2023-07-31T08:48:37;3.70;;;2.40;;
39792;SDS011;26080;42.264;24.536;2023-07-31T08:51:05;4.13;;;2.78;;
39792;SDS011;26080;42.264;24.536;2023-07-31T08:53:32;4.53;;;2.92;;
39792;SDS011;26080;42.264;24.536;2023-07-31T08:55:57;4.88;;;3.08;;
39792;SDS011;26080;42.264;24.536;2023-07-31T08:58:24;4.65;;;3.03;;
39792;SDS011;26080;42.264;24.536;2023-07-31T09:00:52;5.18;;;2.72;;
39792;SDS011;26080;42.264;24.536;2023-07-31T09:03:20;4.70;;;2.92;;
39792;SDS011;26080;42.264;24.536;2023-07-31T09:05:48;4.28;;;2.65;;
39792;SDS011;26080;42.264;24.536;2023-07-31T09:08:16;3.03;;;2.55;;
39792;SDS011;26080;42.264;24.536;2023-07-31T09:10:44;4.18;;;2.67;;
39792;SDS011;26080;42.264;24.536;2023-07-31T09:13:11;3.95;;;2.35;;
39792;SDS011;26080;42.264;24.536;2023-07-31T09:15:40;3.65;;;1.88;;
39792;SDS011;26080;42.264;24.536;2023-07-31T09:18:09;3.28;;;2.00;;
39792;SDS011;26080;42.264;24.536;2023-07-31T09:20:34;4.07;;;2.60;;
39792;SDS011;26080;42.264;24.536;2023-07-31T09:25:35;3.42;;;2.10;;
39792;SDS011;26080;42.264;24.536;2023-07-31T09:28:08;3.35;;;2.00;;
39792;SDS011;26080;42.264;24.536;2023-07-31T09:30:45;3.97;;;2.78;;
39792;SDS011;26080;42.264;24.536;2023-07-31T09:33:13;3.80;;;2.03;;
39792;SDS011;26080;42.264;24.536;2023-07-31T09:35:38;3.28;;;2.20;;
39792;SDS011;26080;42.264;24.536;2023-07-31T09:38:09;2.60;;;2.22;;
39792;SDS011;26080;42.264;24.536;2023-07-31T09:40:38;3.42;;;2.38;;
39792;SDS011;26080;42.264;24.536;2023-07-31T09:43:08;3.28;;;2.47;;
39792;SDS011;26080;42.264;24.536;2023-07-31T09:45:39;4.03;;;2.60;;
39792;SDS011;26080;42.264;24.536;2023-07-31T09:50:36;4.03;;;2.40;;
39792;SDS011;26080;42.264;24.536;2023-07-31T09:53:03;3.58;;;2.00;;
39792;SDS011;26080;42.264;24.536;2023-07-31T09:55:29;2.83;;;1.88;;
39792;SDS011;26080;42.264;24.536;2023-07-31T09:57:55;10.55;;;1.55;;
39792;SDS011;26080;42.264;24.536;2023-07-31T10:00:22;2.58;;;1.77;;
39792;SDS011;26080;42.264;24.536;2023-07-31T10:02:52;3.08;;;1.67;;
39792;SDS011;26080;42.264;24.536;2023-07-31T10:05:18;2.25;;;1.63;;
39792;SDS011;26080;42.264;24.536;2023-07-31T10:07:54;2.35;;;1.45;;
39792;SDS011;26080;42.264;24.536;2023-07-31T10:10:23;2.20;;;1.38;;
39792;SDS011;26080;42.264;24.536;2023-07-31T10:12:50;1.90;;;1.40;;
39792;SDS011;26080;42.264;24.536;2023-07-31T10:15:18;2.15;;;1.50;;
39792;SDS011;26080;42.264;24.536;2023-07-31T10:17:44;3.95;;;2.03;;
39792;SDS011;26080;42.264;24.536;2023-07-31T10:20:11;2.97;;;1.90;;
39792;SDS011;26080;42.264;24.536;2023-07-31T10:22:37;3.40;;;2.00;;
39792;SDS011;26080;42.264;24.536;2023-07-31T10:25:03;3.88;;;2.72;;
39792;SDS011;26080;42.264;24.536;2023-07-31T10:27:31;3.60;;;2.45;;
39792;SDS011;26080;42.264;24.536;2023-07-31T10:30:03;16.17;;;2.33;;
39792;SDS011;26080;42.264;24.536;2023-07-31T10:32:30;5.28;;;1.83;;
39792;SDS011;26080;42.264;24.536;2023-07-31T10:34:56;4.43;;;2.40;;
39792;SDS011;26080;42.264;24.536;2023-07-31T10:39:56;3.22;;;1.92;;
39792;SDS011;26080;42.264;24.536;2023-07-31T10:42:35;2.30;;;1.75;;
39792;SDS011;26080;42.264;24.536;2023-07-31T10:45:04;2.80;;;1.95;;
39792;SDS011;26080;42.264;24.536;2023-07-31T10:47:44;3.72;;;2.40;;
39792;SDS011;26080;42.264;24.536;2023-07-31T10:50:16;8.07;;;1.90;;
39792;SDS011;26080;42.264;24.536;2023-07-31T10:52:48;3.33;;;2.20;;
39792;SDS011;26080;42.264;24.536;2023-07-31T10:57:54;2.95;;;2.17;;
39792;SDS011;26080;42.264;24.536;2023-07-31T11:00:27;2.72;;;1.50;;
39792;SDS011;26080;42.264;24.536;2023-07-31T11:02:57;2.92;;;1.60;;
39792;SDS011;26080;42.264;24.536;2023-07-31T11:16:14;3.13;;;1.90;;
39792;SDS011;26080;42.264;24.536;2023-07-31T11:18:41;2.15;;;1.55;;
39792;SDS011;26080;42.264;24.536;2023-07-31T11:21:14;2.33;;;2.13;;
39792;SDS011;26080;42.264;24.536;2023-07-31T11:23:41;2.58;;;1.80;;
39792;SDS011;26080;42.264;24.536;2023-07-31T11:26:07;3.88;;;1.95;;
39792;SDS011;26080;42.264;24.536;2023-07-31T11:28:33;1.98;;;1.65;;
39792;SDS011;26080;42.264;24.536;2023-07-31T11:30:59;3.17;;;1.92;;
39792;SDS011;26080;42.264;24.536;2023-07-31T11:33:26;2.70;;;1.80;;
39792;SDS011;26080;42.264;24.536;2023-07-31T11:35:52;2.70;;;1.80;;
39792;SDS011;26080;42.264;24.536;2023-07-31T11:38:24;2.38;;;1.42;;
39792;SDS011;26080;42.264;24.536;2023-07-31T11:40:52;3.13;;;1.83;;
39792;SDS011;26080;42.264;24.536;2023-07-31T11:43:19;2.33;;;1.35;;
39792;SDS011;26080;42.264;24.536;2023-07-31T11:45:49;1.67;;;1.45;;
39792;SDS011;26080;42.264;24.536;2023-07-31T11:48:21;2.13;;;1.77;;
39792;SDS011;26080;42.264;24.536;2023-07-31T11:50:49;2.53;;;1.38;;
39792;SDS011;26080;42.264;24.536;2023-07-31T11:53:16;1.85;;;1.02;;
39792;SDS011;26080;42.264;24.536;2023-07-31T11:55:43;2.00;;;1.30;;
39792;SDS011;26080;42.264;24.536;2023-07-31T11:58:10;3.85;;;1.38;;
39792;SDS011;26080;42.264;24.536;2023-07-31T12:00:36;2.33;;;1.35;;
39792;SDS011;26080;42.264;24.536;2023-07-31T12:03:02;2.05;;;1.30;;
39792;SDS011;26080;42.264;24.536;2023-07-31T12:05:27;4.50;;;2.17;;
39792;SDS011;26080;42.264;24.536;2023-07-31T12:07:53;2.20;;;1.88;;
39792;SDS011;26080;42.264;24.536;2023-07-31T12:10:27;2.30;;;1.80;;
39792;SDS011;26080;42.264;24.536;2023-07-31T12:15:36;3.05;;;1.73;;
39792;SDS011;26080;42.264;24.536;2023-07-31T12:18:04;2.80;;;1.80;;
39792;SDS011;26080;42.264;24.536;2023-07-31T12:20:34;2.47;;;1.50;;
39792;SDS011;26080;42.264;24.536;2023-07-31T12:23:00;11.80;;;1.58;;
39792;SDS011;26080;42.264;24.536;2023-07-31T12:25:30;7.00;;;1.92;;
39792;SDS011;26080;42.264;24.536;2023-07-31T12:27:57;1.52;;;1.30;;
39792;SDS011;26080;42.264;24.536;2023-07-31T12:30:27;2.42;;;1.73;;
39792;SDS011;26080;42.264;24.536;2023-07-31T12:32:57;3.50;;;1.92;;
39792;SDS011;26080;42.264;24.536;2023-07-31T12:35:33;2.35;;;1.27;;
39792;SDS011;26080;42.264;24.536;2023-07-31T12:38:03;2.13;;;1.30;;
39792;SDS011;26080;42.264;24.536;2023-07-31T12:40:29;1.77;;;1.50;;
39792;SDS011;26080;42.264;24.536;2023-07-31T12:42:55;2.53;;;1.55;;
39792;SDS011;26080;42.264;24.536;2023-07-31T12:45:21;2.45;;;1.55;;
39792;SDS011;26080;42.264;24.536;2023-07-31T12:47:48;1.95;;;1.42;;
39792;SDS011;26080;42.264;24.536;2023-07-31T12:50:13;2.30;;;1.70;;
39792;SDS011;26080;42.264;24.536;2023-07-31T12:52:39;2.10;;;1.42;;
39792;SDS011;26080;42.264;24.536;2023-07-31T12:55:04;3.33;;;1.70;;
39792;SDS011;26080;42.264;24.536;2023-07-31T12:57:30;2.33;;;1.65;;
39792;SDS011;26080;42.264;24.536;2023-07-31T12:59:56;2.47;;;1.45;;
39792;SDS011;26080;42.264;24.536;2023-07-31T13:02:21;10.88;;;2.60;;
39792;SDS011;26080;42.264;24.536;2023-07-31T13:04:47;2.20;;;1.40;;
39792;SDS011;26080;42.264;24.536;2023-07-31T13:07:15;3.15;;;1.65;;
39792;SDS011;26080;42.264;24.536;2023-07-31T13:09:40;5.18;;;1.77;;
39792;SDS011;26080;42.264;24.536;2023-07-31T13:12:06;2.03;;;1.33;;
39792;SDS011;26080;42.264;24.536;2023-07-31T13:14:32;1.52;;;1.05;;
39792;SDS011;26080;42.264;24.536;2023-07-31T13:16:57;3.03;;;1.58;;
39792;SDS011;26080;42.264;24.536;2023-07-31T13:19:23;1.40;;;1.23;;
39792;SDS011;26080;42.264;24.536;2023-07-31T13:21:48;7.63;;;1.63;;
39792;SDS011;26080;42.264;24.536;2023-07-31T13:24:14;2.58;;;1.40;;
39792;SDS011;26080;42.264;24.536;2023-07-31T13:26:39;3.15;;;2.10;;
39792;SDS011;26080;42.264;24.536;2023-07-31T13:29:04;3.92;;;2.17;;
39792;SDS011;26080;42.264;24.536;2023-07-31T13:31:30;2.58;;;1.58;;
39792;SDS011;26080;42.264;24.536;2023-07-31T13:33:55;2.85;;;1.55;;
39792;SDS011;26080;42.264;24.536;2023-07-31T13:36:21;2.75;;;1.92;;
39792;SDS011;26080;42.264;24.536;2023-07-31T13:38:46;5.70;;;2.28;;
39792;SDS011;26080;42.264;24.536;2023-07-31T13:41:12;2.05;;;1.40;;
39792;SDS011;26080;42.264;24.536;2023-07-31T13:43:37;1.60;;;1.17;;
39792;SDS011;26080;42.264;24.536;2023-07-31T13:46:03;1.67;;;1.27;;
39792;SDS011;26080;42.264;24.536;2023-07-31T13:48:33;1.92;;;1.20;;
39792;SDS011;26080;42.264;24.536;2023-07-31T13:50:59;1.95;;;1.20;;
39792;SDS011;26080;42.264;24.536;2023-07-31T13:53:25;2.33;;;1.42;;
39792;SDS011;26080;42.264;24.536;2023-07-31T13:55:50;5.60;;;1.70;;
39792;SDS011;26080;42.264;24.536;2023-07-31T13:58:17;0.90;;;0.80;;
39792;SDS011;26080;42.264;24.536;2023-07-31T14:00:42;2.67;;;1.30;;
39792;SDS011;26080;42.264;24.536;2023-07-31T14:03:08;1.13;;;0.75;;
39792;SDS011;26080;42.264;24.536;2023-07-31T14:05:33;1.50;;;1.05;;
39792;SDS011;26080;42.264;24.536;2023-07-31T14:07:58;1.88;;;1.23;;
39792;SDS011;26080;42.264;24.536;2023-07-31T14:10:24;1.10;;;1.00;;
39792;SDS011;26080;42.264;24.536;2023-07-31T14:12:50;1.25;;;0.88;;
39792;SDS011;26080;42.264;24.536;2023-07-31T14:15:15;2.53;;;1.30;;
39792;SDS011;26080;42.264;24.536;2023-07-31T14:17:40;2.33;;;1.40;;
39792;SDS011;26080;42.264;24.536;2023-07-31T14:20:06;1.55;;;1.08;;
39792;SDS011;26080;42.264;24.536;2023-07-31T14:22:32;1.20;;;1.02;;
39792;SDS011;26080;42.264;24.536;2023-07-31T14:24:59;2.28;;;1.42;;
39792;SDS011;26080;42.264;24.536;2023-07-31T14:27:25;7.75;;;1.23;;
39792;SDS011;26080;42.264;24.536;2023-07-31T14:29:50;3.08;;;1.30;;
39792;SDS011;26080;42.264;24.536;2023-07-31T14:32:16;1.65;;;1.00;;
39792;SDS011;26080;42.264;24.536;2023-07-31T14:34:41;2.95;;;1.65;;
39792;SDS011;26080;42.264;24.536;2023-07-31T14:37:07;2.75;;;1.48;;
39792;SDS011;26080;42.264;24.536;2023-07-31T14:39:32;4.78;;;2.58;;
39792;SDS011;26080;42.264;24.536;2023-07-31T14:41:58;2.97;;;1.90;;
39792;SDS011;26080;42.264;24.536;2023-07-31T14:44:23;2.30;;;1.80;;
39792;SDS011;26080;42.264;24.536;2023-07-31T14:46:48;3.17;;;1.55;;
39792;SDS011;26080;42.264;24.536;2023-07-31T14:49:17;2.05;;;1.42;;
39792;SDS011;26080;42.264;24.536;2023-07-31T14:51:45;4.40;;;2.22;;
39792;SDS011;26080;42.264;24.536;2023-07-31T14:54:11;2.08;;;1.50;;
39792;SDS011;26080;42.264;24.536;2023-07-31T14:56:36;5.22;;;1.98;;
39792;SDS011;26080;42.264;24.536;2023-07-31T14:59:02;3.83;;;1.60;;
39792;SDS011;26080;42.264;24.536;2023-07-31T15:01:27;2.38;;;1.48;;
39792;SDS011;26080;42.264;24.536;2023-07-31T15:03:53;2.13;;;1.45;;
39792;SDS011;26080;42.264;24.536;2023-07-31T15:06:19;1.70;;;1.55;;